sensor_id;sensor_type;location;lat;lon;timestamp;P1;durP1;ratioP1;P2;durP2;ratioP2
64643;SDS011;51056;50.330;7.914;2024-01-10T00:05:31;23.48;;;12.55;;
64643;SDS011;51056;50.330;7.914;2024-01-10T00:08:34;24.92;;;13.63;;
64643;SDS011;51056;50.330;7.914;2024-01-10T00:11:38;24.60;;;13.10;;
64643;SDS011;51056;50.330;7.914;2024-01-10T00:14:41;27.25;;;15.00;;
64643;SDS011;51056;50.330;7.914;2024-01-10T00:17:44;25.20;;;13.52;;
64643;SDS011;51056;50.330;7.914;2024-01-10T00:20:48;25.83;;;14.82;;
64643;SDS011;51056;50.330;7.914;2024-01-10T00:23:51;29.25;;;15.18;;
64643;SDS011;51056;50.330;7.914;2024-01-10T00:26:54;25.48;;;14.73;;
64643;SDS011;51056;50.330;7.914;2024-01-10T00:29:58;22.67;;;14.10;;
64643;SDS011;51056;50.330;7.914;2024-01-10T00:33:01;25.52;;;14.75;;
64643;SDS011;51056;50.330;7.914;2024-01-10T00:36:05;31.95;;;16.77;;
64643;SDS011;51056;50.330;7.914;2024-01-10T00:39:09;26.67;;;15.05;;
64643;SDS011;51056;50.330;7.914;2024-01-10T00:42:15;26.55;;;15.05;;
64643;SDS011;51056;50.330;7.914;2024-01-10T00:45:18;27.23;;;15.00;;
64643;SDS011;51056;50.330;7.914;2024-01-10T00:48:22;30.50;;;17.30;;
64643;SDS011;51056;50.330;7.914;2024-01-10T00:51:25;28.27;;;15.50;;
64643;SDS011;51056;50.330;7.914;2024-01-10T00:54:28;26.60;;;15.95;;
64643;SDS011;51056;50.330;7.914;2024-01-10T00:57:31;25.50;;;13.18;;
64643;SDS011;51056;50.330;7.914;2024-01-10T01:00:35;25.17;;;16.08;;
64643;SDS011;51056;50.330;7.914;2024-01-10T01:03:38;28.73;;;17.08;;
64643;SDS011;51056;50.330;7.914;2024-01-10T01:06:41;29.20;;;15.90;;
64643;SDS011;51056;50.330;7.914;2024-01-10T01:12:48;30.65;;;16.10;;
64643;SDS011;51056;50.330;7.914;2024-01-10T01:15:51;28.08;;;15.40;;
64643;SDS011;51056;50.330;7.914;2024-01-10T01:18:54;25.17;;;15.10;;
64643;SDS011;51056;50.330;7.914;2024-01-10T01:21:57;24.80;;;15.43;;
64643;SDS011;51056;50.330;7.914;2024-01-10T01:25:01;27.80;;;15.95;;
64643;SDS011;51056;50.330;7.914;2024-01-10T01:28:05;26.15;;;15.68;;
64643;SDS011;51056;50.330;7.914;2024-01-10T01:31:08;25.05;;;14.80;;
64643;SDS011;51056;50.330;7.914;2024-01-10T01:34:11;27.67;;;15.45;;
64643;SDS011;51056;50.330;7.914;2024-01-10T01:37:14;32.20;;;16.63;;
64643;SDS011;51056;50.330;7.914;2024-01-10T01:40:18;29.73;;;16.95;;
64643;SDS011;51056;50.330;7.914;2024-01-10T01:43:25;28.50;;;17.33;;
64643;SDS011;51056;50.330;7.914;2024-01-10T01:46:29;27.55;;;16.55;;
64643;SDS011;51056;50.330;7.914;2024-01-10T01:52:35;29.70;;;16.17;;
64643;SDS011;51056;50.330;7.914;2024-01-10T01:55:40;27.25;;;16.63;;
64643;SDS011;51056;50.330;7.914;2024-01-10T01:58:45;30.17;;;16.45;;
64643;SDS011;51056;50.330;7.914;2024-01-10T02:01:49;26.45;;;16.10;;
64643;SDS011;51056;50.330;7.914;2024-01-10T02:04:55;31.20;;;17.60;;
64643;SDS011;51056;50.330;7.914;2024-01-10T02:07:58;26.92;;;17.10;;
64643;SDS011;51056;50.330;7.914;2024-01-10T02:11:02;23.10;;;13.25;;
64643;SDS011;51056;50.330;7.914;2024-01-10T02:14:06;28.77;;;15.98;;
64643;SDS011;51056;50.330;7.914;2024-01-10T02:17:09;31.45;;;18.33;;
64643;SDS011;51056;50.330;7.914;2024-01-10T02:20:13;29.90;;;17.35;;
64643;SDS011;51056;50.330;7.914;2024-01-10T02:23:20;31.38;;;18.10;;
64643;SDS011;51056;50.330;7.914;2024-01-10T02:26:23;32.35;;;17.08;;
64643;SDS011;51056;50.330;7.914;2024-01-10T02:29:26;28.63;;;16.90;;
64643;SDS011;51056;50.330;7.914;2024-01-10T02:32:30;32.35;;;17.63;;
64643;SDS011;51056;50.330;7.914;2024-01-10T02:35:34;33.35;;;16.52;;
64643;SDS011;51056;50.330;7.914;2024-01-10T02:38:37;27.73;;;16.52;;
64643;SDS011;51056;50.330;7.914;2024-01-10T02:41:40;36.42;;;17.17;;
64643;SDS011;51056;50.330;7.914;2024-01-10T02:47:47;31.75;;;17.77;;
64643;SDS011;51056;50.330;7.914;2024-01-10T02:50:50;31.60;;;17.42;;
64643;SDS011;51056;50.330;7.914;2024-01-10T02:53:53;32.55;;;18.13;;
64643;SDS011;51056;50.330;7.914;2024-01-10T03:00:00;30.00;;;17.08;;
64643;SDS011;51056;50.330;7.914;2024-01-10T03:03:03;33.85;;;18.85;;
64643;SDS011;51056;50.330;7.914;2024-01-10T03:06:07;31.75;;;17.92;;
64643;SDS011;51056;50.330;7.914;2024-01-10T03:09:10;28.13;;;17.27;;
64643;SDS011;51056;50.330;7.914;2024-01-10T03:12:13;28.08;;;15.18;;
64643;SDS011;51056;50.330;7.914;2024-01-10T03:15:16;31.45;;;18.20;;
64643;SDS011;51056;50.330;7.914;2024-01-10T03:18:20;30.25;;;17.98;;
64643;SDS011;51056;50.330;7.914;2024-01-10T03:24:28;32.60;;;17.70;;
64643;SDS011;51056;50.330;7.914;2024-01-10T03:27:32;30.05;;;18.05;;
64643;SDS011;51056;50.330;7.914;2024-01-10T03:30:35;34.63;;;18.73;;
64643;SDS011;51056;50.330;7.914;2024-01-10T03:36:42;29.90;;;17.48;;
64643;SDS011;51056;50.330;7.914;2024-01-10T03:39:45;37.45;;;19.63;;
64643;SDS011;51056;50.330;7.914;2024-01-10T03:42:48;35.08;;;18.65;;
64643;SDS011;51056;50.330;7.914;2024-01-10T03:45:52;35.92;;;18.05;;
64643;SDS011;51056;50.330;7.914;2024-01-10T03:48:55;31.50;;;18.92;;
64643;SDS011;51056;50.330;7.914;2024-01-10T03:51:58;29.67;;;18.10;;
64643;SDS011;51056;50.330;7.914;2024-01-10T03:58:04;35.60;;;18.60;;
64643;SDS011;51056;50.330;7.914;2024-01-10T04:01:08;31.27;;;18.05;;
64643;SDS011;51056;50.330;7.914;2024-01-10T04:04:11;34.95;;;19.10;;
64643;SDS011;51056;50.330;7.914;2024-01-10T04:07:15;35.22;;;20.15;;
64643;SDS011;51056;50.330;7.914;2024-01-10T04:10:18;35.47;;;19.73;;
64643;SDS011;51056;50.330;7.914;2024-01-10T04:13:22;30.50;;;18.45;;
64643;SDS011;51056;50.330;7.914;2024-01-10T04:16:25;33.42;;;18.23;;
64643;SDS011;51056;50.330;7.914;2024-01-10T04:19:30;31.65;;;17.73;;
64643;SDS011;51056;50.330;7.914;2024-01-10T04:22:33;34.40;;;19.05;;
64643;SDS011;51056;50.330;7.914;2024-01-10T04:25:36;33.45;;;20.35;;
64643;SDS011;51056;50.330;7.914;2024-01-10T04:28:40;33.60;;;18.92;;
64643;SDS011;51056;50.330;7.914;2024-01-10T04:31:44;31.50;;;18.20;;
64643;SDS011;51056;50.330;7.914;2024-01-10T04:34:47;31.00;;;18.65;;
64643;SDS011;51056;50.330;7.914;2024-01-10T04:37:51;36.03;;;19.98;;
64643;SDS011;51056;50.330;7.914;2024-01-10T04:40:54;30.02;;;17.33;;
64643;SDS011;51056;50.330;7.914;2024-01-10T04:43:57;29.13;;;18.55;;
64643;SDS011;51056;50.330;7.914;2024-01-10T04:47:00;34.25;;;19.10;;
64643;SDS011;51056;50.330;7.914;2024-01-10T04:50:04;34.75;;;19.58;;
64643;SDS011;51056;50.330;7.914;2024-01-10T04:53:07;32.22;;;19.25;;
64643;SDS011;51056;50.330;7.914;2024-01-10T04:56:11;33.35;;;18.77;;
64643;SDS011;51056;50.330;7.914;2024-01-10T04:59:14;31.33;;;18.15;;
64643;SDS011;51056;50.330;7.914;2024-01-10T05:02:18;33.70;;;19.25;;
64643;SDS011;51056;50.330;7.914;2024-01-10T05:05:21;35.70;;;18.45;;
64643;SDS011;51056;50.330;7.914;2024-01-10T05:08:26;31.25;;;19.25;;
64643;SDS011;51056;50.330;7.914;2024-01-10T05:11:29;37.17;;;19.35;;
64643;SDS011;51056;50.330;7.914;2024-01-10T05:14:33;31.85;;;19.52;;
64643;SDS011;51056;50.330;7.914;2024-01-10T05:17:36;35.53;;;19.88;;
64643;SDS011;51056;50.330;7.914;2024-01-10T05:20:40;36.75;;;19.50;;
64643;SDS011;51056;50.330;7.914;2024-01-10T05:23:43;35.53;;;19.75;;
64643;SDS011;51056;50.330;7.914;2024-01-10T05:26:46;36.20;;;20.08;;
64643;SDS011;51056;50.330;7.914;2024-01-10T05:32:52;33.63;;;19.13;;
64643;SDS011;51056;50.330;7.914;2024-01-10T05:35:56;33.67;;;19.13;;
64643;SDS011;51056;50.330;7.914;2024-01-10T05:39:01;33.85;;;19.60;;
64643;SDS011;51056;50.330;7.914;2024-01-10T05:42:04;35.40;;;20.75;;
64643;SDS011;51056;50.330;7.914;2024-01-10T05:45:07;31.02;;;17.80;;
64643;SDS011;51056;50.330;7.914;2024-01-10T05:48:11;58.40;;;31.73;;
64643;SDS011;51056;50.330;7.914;2024-01-10T05:51:15;42.65;;;24.20;;
64643;SDS011;51056;50.330;7.914;2024-01-10T05:54:18;37.22;;;20.17;;
64643;SDS011;51056;50.330;7.914;2024-01-10T06:00:24;32.88;;;19.15;;
64643;SDS011;51056;50.330;7.914;2024-01-10T06:03:28;35.38;;;19.23;;
64643;SDS011;51056;50.330;7.914;2024-01-10T06:06:32;38.03;;;22.33;;
64643;SDS011;51056;50.330;7.914;2024-01-10T06:09:35;34.10;;;20.85;;
64643;SDS011;51056;50.330;7.914;2024-01-10T06:12:38;34.67;;;19.83;;
64643;SDS011;51056;50.330;7.914;2024-01-10T06:15:42;36.83;;;20.30;;
64643;SDS011;51056;50.330;7.914;2024-01-10T06:18:45;34.42;;;19.92;;
64643;SDS011;51056;50.330;7.914;2024-01-10T06:21:49;34.13;;;19.65;;
64643;SDS011;51056;50.330;7.914;2024-01-10T06:24:53;32.35;;;19.55;;
64643;SDS011;51056;50.330;7.914;2024-01-10T06:27:59;36.63;;;20.88;;
64643;SDS011;51056;50.330;7.914;2024-01-10T06:31:07;31.55;;;19.20;;
64643;SDS011;51056;50.330;7.914;2024-01-10T06:34:11;34.38;;;20.38;;
64643;SDS011;51056;50.330;7.914;2024-01-10T06:37:19;36.15;;;21.38;;
64643;SDS011;51056;50.330;7.914;2024-01-10T06:40:26;34.92;;;20.10;;
64643;SDS011;51056;50.330;7.914;2024-01-10T06:43:33;33.50;;;19.52;;
64643;SDS011;51056;50.330;7.914;2024-01-10T06:46:38;36.30;;;20.08;;
64643;SDS011;51056;50.330;7.914;2024-01-10T06:49:41;35.53;;;20.35;;
64643;SDS011;51056;50.330;7.914;2024-01-10T06:52:44;34.10;;;18.95;;
64643;SDS011;51056;50.330;7.914;2024-01-10T06:55:47;33.50;;;19.33;;
64643;SDS011;51056;50.330;7.914;2024-01-10T06:58:51;41.85;;;21.45;;
64643;SDS011;51056;50.330;7.914;2024-01-10T07:01:54;38.03;;;20.98;;
64643;SDS011;51056;50.330;7.914;2024-01-10T07:05:00;33.20;;;18.92;;
64643;SDS011;51056;50.330;7.914;2024-01-10T07:08:05;38.53;;;20.58;;
64643;SDS011;51056;50.330;7.914;2024-01-10T07:11:09;33.03;;;20.35;;
64643;SDS011;51056;50.330;7.914;2024-01-10T07:14:12;33.00;;;19.65;;
64643;SDS011;51056;50.330;7.914;2024-01-10T07:17:16;35.17;;;19.80;;
64643;SDS011;51056;50.330;7.914;2024-01-10T07:20:19;31.23;;;19.08;;
64643;SDS011;51056;50.330;7.914;2024-01-10T07:23:23;37.97;;;20.85;;
64643;SDS011;51056;50.330;7.914;2024-01-10T07:26:26;36.70;;;19.25;;
64643;SDS011;51056;50.330;7.914;2024-01-10T07:29:30;35.25;;;20.02;;
64643;SDS011;51056;50.330;7.914;2024-01-10T07:32:33;37.15;;;21.27;;
64643;SDS011;51056;50.330;7.914;2024-01-10T07:38:41;41.28;;;22.08;;
64643;SDS011;51056;50.330;7.914;2024-01-10T07:41:45;49.65;;;25.50;;
64643;SDS011;51056;50.330;7.914;2024-01-10T07:44:48;37.13;;;20.90;;
64643;SDS011;51056;50.330;7.914;2024-01-10T07:47:51;47.28;;;25.17;;
64643;SDS011;51056;50.330;7.914;2024-01-10T07:50:55;49.05;;;26.42;;
64643;SDS011;51056;50.330;7.914;2024-01-10T07:53:58;38.95;;;23.38;;
64643;SDS011;51056;50.330;7.914;2024-01-10T07:57:04;35.17;;;20.48;;
64643;SDS011;51056;50.330;7.914;2024-01-10T08:00:11;37.10;;;21.55;;
64643;SDS011;51056;50.330;7.914;2024-01-10T08:03:18;33.60;;;20.70;;
64643;SDS011;51056;50.330;7.914;2024-01-10T08:06:30;38.40;;;21.40;;
64643;SDS011;51056;50.330;7.914;2024-01-10T08:09:34;35.60;;;22.77;;
64643;SDS011;51056;50.330;7.914;2024-01-10T08:12:38;36.38;;;21.05;;
64643;SDS011;51056;50.330;7.914;2024-01-10T08:15:45;37.55;;;22.52;;
64643;SDS011;51056;50.330;7.914;2024-01-10T08:18:48;38.22;;;22.30;;
64643;SDS011;51056;50.330;7.914;2024-01-10T08:21:52;35.03;;;20.98;;
64643;SDS011;51056;50.330;7.914;2024-01-10T08:24:55;40.03;;;22.17;;
64643;SDS011;51056;50.330;7.914;2024-01-10T08:27:59;41.22;;;21.85;;
64643;SDS011;51056;50.330;7.914;2024-01-10T08:34:06;25.02;;;15.35;;
64643;SDS011;51056;50.330;7.914;2024-01-10T08:37:09;35.22;;;20.30;;
64643;SDS011;51056;50.330;7.914;2024-01-10T08:40:12;40.20;;;21.55;;
64643;SDS011;51056;50.330;7.914;2024-01-10T08:43:18;38.20;;;22.45;;
64643;SDS011;51056;50.330;7.914;2024-01-10T08:46:21;39.47;;;21.70;;
64643;SDS011;51056;50.330;7.914;2024-01-10T08:49:25;26.85;;;16.50;;
64643;SDS011;51056;50.330;7.914;2024-01-10T08:52:29;38.55;;;21.08;;
64643;SDS011;51056;50.330;7.914;2024-01-10T08:55:33;39.05;;;20.42;;
64643;SDS011;51056;50.330;7.914;2024-01-10T08:58:37;39.58;;;22.70;;
64643;SDS011;51056;50.330;7.914;2024-01-10T09:01:41;39.30;;;22.40;;
64643;SDS011;51056;50.330;7.914;2024-01-10T09:04:45;37.65;;;22.42;;
64643;SDS011;51056;50.330;7.914;2024-01-10T09:10:53;36.08;;;19.63;;
64643;SDS011;51056;50.330;7.914;2024-01-10T09:17:00;39.38;;;22.17;;
64643;SDS011;51056;50.330;7.914;2024-01-10T09:20:05;37.25;;;21.17;;
64643;SDS011;51056;50.330;7.914;2024-01-10T09:23:09;38.38;;;22.23;;
64643;SDS011;51056;50.330;7.914;2024-01-10T09:26:14;36.13;;;21.17;;
64643;SDS011;51056;50.330;7.914;2024-01-10T09:29:17;41.90;;;21.92;;
64643;SDS011;51056;50.330;7.914;2024-01-10T09:32:21;35.10;;;21.35;;
64643;SDS011;51056;50.330;7.914;2024-01-10T09:35:24;36.88;;;20.83;;
64643;SDS011;51056;50.330;7.914;2024-01-10T09:38:28;41.55;;;23.27;;
64643;SDS011;51056;50.330;7.914;2024-01-10T09:41:33;40.42;;;23.60;;
64643;SDS011;51056;50.330;7.914;2024-01-10T09:44:44;39.60;;;22.35;;
64643;SDS011;51056;50.330;7.914;2024-01-10T09:47:48;43.78;;;22.20;;
64643;SDS011;51056;50.330;7.914;2024-01-10T09:50:57;37.88;;;22.80;;
64643;SDS011;51056;50.330;7.914;2024-01-10T09:54:02;41.15;;;21.48;;
64643;SDS011;51056;50.330;7.914;2024-01-10T09:57:10;36.80;;;22.77;;
64643;SDS011;51056;50.330;7.914;2024-01-10T10:00:17;39.08;;;21.63;;
64643;SDS011;51056;50.330;7.914;2024-01-10T10:03:21;51.40;;;24.70;;
64643;SDS011;51056;50.330;7.914;2024-01-10T10:06:28;43.22;;;22.45;;
64643;SDS011;51056;50.330;7.914;2024-01-10T10:09:47;39.30;;;22.10;;
64643;SDS011;51056;50.330;7.914;2024-01-10T10:13:24;38.63;;;23.70;;
64643;SDS011;51056;50.330;7.914;2024-01-10T10:16:29;40.30;;;22.38;;
64643;SDS011;51056;50.330;7.914;2024-01-10T10:19:34;39.58;;;21.92;;
64643;SDS011;51056;50.330;7.914;2024-01-10T10:22:38;39.72;;;23.85;;
64643;SDS011;51056;50.330;7.914;2024-01-10T10:25:45;40.33;;;23.05;;
64643;SDS011;51056;50.330;7.914;2024-01-10T10:28:51;41.22;;;23.60;;
64643;SDS011;51056;50.330;7.914;2024-01-10T10:31:57;39.30;;;23.73;;
64643;SDS011;51056;50.330;7.914;2024-01-10T10:35:03;40.67;;;22.95;;
64643;SDS011;51056;50.330;7.914;2024-01-10T10:38:08;44.83;;;24.38;;
64643;SDS011;51056;50.330;7.914;2024-01-10T10:41:14;38.15;;;23.05;;
64643;SDS011;51056;50.330;7.914;2024-01-10T10:44:19;39.67;;;21.08;;
64643;SDS011;51056;50.330;7.914;2024-01-10T10:47:35;41.28;;;23.35;;
64643;SDS011;51056;50.330;7.914;2024-01-10T10:50:46;41.33;;;22.27;;
64643;SDS011;51056;50.330;7.914;2024-01-10T10:54:06;41.17;;;23.45;;
64643;SDS011;51056;50.330;7.914;2024-01-10T10:57:10;40.88;;;23.67;;
64643;SDS011;51056;50.330;7.914;2024-01-10T11:00:16;42.08;;;23.90;;
64643;SDS011;51056;50.330;7.914;2024-01-10T11:03:36;34.97;;;21.58;;
64643;SDS011;51056;50.330;7.914;2024-01-10T11:06:56;38.83;;;23.48;;
64643;SDS011;51056;50.330;7.914;2024-01-10T11:10:04;36.17;;;21.70;;
64643;SDS011;51056;50.330;7.914;2024-01-10T11:13:28;38.17;;;22.17;;
64643;SDS011;51056;50.330;7.914;2024-01-10T11:26:44;42.65;;;25.90;;
64643;SDS011;51056;50.330;7.914;2024-01-10T11:29:58;38.67;;;23.70;;
64643;SDS011;51056;50.330;7.914;2024-01-10T11:36:27;41.00;;;24.67;;
64643;SDS011;51056;50.330;7.914;2024-01-10T11:39:35;41.65;;;24.70;;
64643;SDS011;51056;50.330;7.914;2024-01-10T11:45:52;40.70;;;23.15;;
64643;SDS011;51056;50.330;7.914;2024-01-10T11:49:00;38.15;;;23.33;;
64643;SDS011;51056;50.330;7.914;2024-01-10T11:52:03;36.40;;;21.70;;
64643;SDS011;51056;50.330;7.914;2024-01-10T11:55:08;38.85;;;24.58;;
64643;SDS011;51056;50.330;7.914;2024-01-10T11:58:12;36.22;;;23.15;;
64643;SDS011;51056;50.330;7.914;2024-01-10T12:01:15;39.63;;;24.35;;
64643;SDS011;51056;50.330;7.914;2024-01-10T12:04:20;35.40;;;21.58;;
64643;SDS011;51056;50.330;7.914;2024-01-10T12:07:24;35.80;;;22.20;;
64643;SDS011;51056;50.330;7.914;2024-01-10T12:10:28;37.65;;;21.40;;
64643;SDS011;51056;50.330;7.914;2024-01-10T12:13:32;39.45;;;22.95;;
64643;SDS011;51056;50.330;7.914;2024-01-10T12:16:36;37.42;;;22.58;;
64643;SDS011;51056;50.330;7.914;2024-01-10T12:22:47;38.83;;;22.25;;
64643;SDS011;51056;50.330;7.914;2024-01-10T12:25:56;38.55;;;23.02;;
64643;SDS011;51056;50.330;7.914;2024-01-10T12:28:59;37.85;;;22.30;;
64643;SDS011;51056;50.330;7.914;2024-01-10T12:32:03;39.30;;;23.15;;
64643;SDS011;51056;50.330;7.914;2024-01-10T12:35:07;38.30;;;23.70;;
64643;SDS011;51056;50.330;7.914;2024-01-10T12:38:10;41.78;;;23.10;;
64643;SDS011;51056;50.330;7.914;2024-01-10T12:41:14;45.47;;;24.13;;
64643;SDS011;51056;50.330;7.914;2024-01-10T12:44:19;41.70;;;23.83;;
64643;SDS011;51056;50.330;7.914;2024-01-10T12:47:23;38.22;;;23.55;;
64643;SDS011;51056;50.330;7.914;2024-01-10T12:50:27;40.20;;;22.83;;
64643;SDS011;51056;50.330;7.914;2024-01-10T12:53:35;36.88;;;22.38;;
64643;SDS011;51056;50.330;7.914;2024-01-10T12:56:39;38.28;;;22.08;;
64643;SDS011;51056;50.330;7.914;2024-01-10T12:59:43;37.88;;;23.83;;
64643;SDS011;51056;50.330;7.914;2024-01-10T13:02:48;41.22;;;24.20;;
64643;SDS011;51056;50.330;7.914;2024-01-10T13:05:51;48.17;;;23.35;;
64643;SDS011;51056;50.330;7.914;2024-01-10T13:08:54;37.90;;;23.25;;
64643;SDS011;51056;50.330;7.914;2024-01-10T13:11:58;38.85;;;22.48;;
64643;SDS011;51056;50.330;7.914;2024-01-10T13:15:01;41.13;;;22.48;;
64643;SDS011;51056;50.330;7.914;2024-01-10T13:18:05;44.22;;;23.25;;
64643;SDS011;51056;50.330;7.914;2024-01-10T13:21:09;43.13;;;23.55;;
64643;SDS011;51056;50.330;7.914;2024-01-10T13:24:13;43.05;;;22.80;;
64643;SDS011;51056;50.330;7.914;2024-01-10T13:27:16;33.17;;;21.00;;
64643;SDS011;51056;50.330;7.914;2024-01-10T13:30:20;38.15;;;23.02;;
64643;SDS011;51056;50.330;7.914;2024-01-10T13:33:23;36.50;;;22.58;;
64643;SDS011;51056;50.330;7.914;2024-01-10T13:36:26;36.83;;;21.77;;
64643;SDS011;51056;50.330;7.914;2024-01-10T13:39:29;35.55;;;22.05;;
64643;SDS011;51056;50.330;7.914;2024-01-10T13:42:33;32.25;;;20.20;;
64643;SDS011;51056;50.330;7.914;2024-01-10T13:45:36;36.72;;;22.85;;
64643;SDS011;51056;50.330;7.914;2024-01-10T13:48:42;44.00;;;26.23;;
64643;SDS011;51056;50.330;7.914;2024-01-10T13:51:45;37.22;;;22.17;;
64643;SDS011;51056;50.330;7.914;2024-01-10T13:54:48;38.58;;;23.75;;
64643;SDS011;51056;50.330;7.914;2024-01-10T14:00:54;36.22;;;21.60;;
64643;SDS011;51056;50.330;7.914;2024-01-10T14:03:58;37.17;;;22.52;;
64643;SDS011;51056;50.330;7.914;2024-01-10T14:07:01;34.72;;;20.17;;
64643;SDS011;51056;50.330;7.914;2024-01-10T14:10:07;37.58;;;20.95;;
64643;SDS011;51056;50.330;7.914;2024-01-10T14:16:14;34.38;;;20.33;;
64643;SDS011;51056;50.330;7.914;2024-01-10T14:19:18;32.85;;;20.95;;
64643;SDS011;51056;50.330;7.914;2024-01-10T14:22:21;30.40;;;20.95;;
64643;SDS011;51056;50.330;7.914;2024-01-10T14:25:27;33.90;;;20.60;;
64643;SDS011;51056;50.330;7.914;2024-01-10T14:28:31;33.25;;;20.27;;
64643;SDS011;51056;50.330;7.914;2024-01-10T14:31:35;33.92;;;20.33;;
64643;SDS011;51056;50.330;7.914;2024-01-10T14:34:39;35.13;;;21.70;;
64643;SDS011;51056;50.330;7.914;2024-01-10T14:37:43;35.47;;;21.60;;
64643;SDS011;51056;50.330;7.914;2024-01-10T14:40:49;45.83;;;26.90;;
64643;SDS011;51056;50.330;7.914;2024-01-10T14:43:54;51.42;;;29.50;;
64643;SDS011;51056;50.330;7.914;2024-01-10T14:46:59;44.10;;;25.88;;
64643;SDS011;51056;50.330;7.914;2024-01-10T14:50:03;41.83;;;24.38;;
64643;SDS011;51056;50.330;7.914;2024-01-10T14:53:07;45.30;;;25.92;;
64643;SDS011;51056;50.330;7.914;2024-01-10T14:56:11;40.45;;;24.15;;
64643;SDS011;51056;50.330;7.914;2024-01-10T14:59:14;46.28;;;25.90;;
64643;SDS011;51056;50.330;7.914;2024-01-10T15:02:18;43.30;;;23.13;;
64643;SDS011;51056;50.330;7.914;2024-01-10T15:05:21;42.17;;;25.67;;
64643;SDS011;51056;50.330;7.914;2024-01-10T15:08:25;43.05;;;25.30;;
64643;SDS011;51056;50.330;7.914;2024-01-10T15:11:29;45.15;;;27.42;;
64643;SDS011;51056;50.330;7.914;2024-01-10T15:14:33;40.88;;;24.90;;
64643;SDS011;51056;50.330;7.914;2024-01-10T15:17:40;42.83;;;24.58;;
64643;SDS011;51056;50.330;7.914;2024-01-10T15:20:43;37.05;;;23.23;;
64643;SDS011;51056;50.330;7.914;2024-01-10T15:23:47;40.33;;;24.38;;
64643;SDS011;51056;50.330;7.914;2024-01-10T15:26:50;36.47;;;21.98;;
64643;SDS011;51056;50.330;7.914;2024-01-10T15:29:54;37.80;;;22.45;;
64643;SDS011;51056;50.330;7.914;2024-01-10T15:32:58;38.38;;;22.02;;
64643;SDS011;51056;50.330;7.914;2024-01-10T15:36:02;35.83;;;20.95;;
64643;SDS011;51056;50.330;7.914;2024-01-10T15:39:09;35.65;;;21.13;;
64643;SDS011;51056;50.330;7.914;2024-01-10T15:42:15;37.03;;;20.60;;
64643;SDS011;51056;50.330;7.914;2024-01-10T15:45:20;36.65;;;21.80;;
64643;SDS011;51056;50.330;7.914;2024-01-10T15:48:24;39.53;;;22.58;;
64643;SDS011;51056;50.330;7.914;2024-01-10T15:51:28;36.00;;;21.40;;
64643;SDS011;51056;50.330;7.914;2024-01-10T15:54:31;37.42;;;22.05;;
64643;SDS011;51056;50.330;7.914;2024-01-10T15:57:40;34.83;;;22.50;;
64643;SDS011;51056;50.330;7.914;2024-01-10T16:00:43;36.33;;;21.20;;
64643;SDS011;51056;50.330;7.914;2024-01-10T16:03:46;40.60;;;22.95;;
64643;SDS011;51056;50.330;7.914;2024-01-10T16:06:50;36.20;;;22.15;;
64643;SDS011;51056;50.330;7.914;2024-01-10T16:09:53;35.40;;;20.58;;
64643;SDS011;51056;50.330;7.914;2024-01-10T16:12:56;37.10;;;21.13;;
64643;SDS011;51056;50.330;7.914;2024-01-10T16:16:00;31.23;;;20.17;;
64643;SDS011;51056;50.330;7.914;2024-01-10T16:19:05;77.55;;;39.13;;
64643;SDS011;51056;50.330;7.914;2024-01-10T16:22:09;50.83;;;24.50;;
64643;SDS011;51056;50.330;7.914;2024-01-10T16:25:13;35.40;;;21.85;;
64643;SDS011;51056;50.330;7.914;2024-01-10T16:28:17;33.03;;;19.00;;
64643;SDS011;51056;50.330;7.914;2024-01-10T16:31:21;37.55;;;22.95;;
64643;SDS011;51056;50.330;7.914;2024-01-10T16:34:25;41.75;;;23.55;;
64643;SDS011;51056;50.330;7.914;2024-01-10T16:37:30;41.97;;;23.48;;
64643;SDS011;51056;50.330;7.914;2024-01-10T16:40:34;33.80;;;20.48;;
64643;SDS011;51056;50.330;7.914;2024-01-10T16:43:37;38.58;;;21.33;;
64643;SDS011;51056;50.330;7.914;2024-01-10T16:46:40;26.65;;;15.57;;
64643;SDS011;51056;50.330;7.914;2024-01-10T16:49:44;31.88;;;20.35;;
64643;SDS011;51056;50.330;7.914;2024-01-10T16:52:51;37.50;;;21.83;;
64643;SDS011;51056;50.330;7.914;2024-01-10T16:55:54;39.38;;;22.48;;
64643;SDS011;51056;50.330;7.914;2024-01-10T16:58:59;31.60;;;19.45;;
64643;SDS011;51056;50.330;7.914;2024-01-10T17:02:04;42.83;;;20.58;;
64643;SDS011;51056;50.330;7.914;2024-01-10T17:05:08;33.65;;;20.38;;
64643;SDS011;51056;50.330;7.914;2024-01-10T17:08:12;34.63;;;21.63;;
64643;SDS011;51056;50.330;7.914;2024-01-10T17:11:16;38.72;;;21.48;;
64643;SDS011;51056;50.330;7.914;2024-01-10T17:14:20;34.65;;;20.60;;
64643;SDS011;51056;50.330;7.914;2024-01-10T17:17:25;39.90;;;20.17;;
64643;SDS011;51056;50.330;7.914;2024-01-10T17:20:34;37.17;;;21.42;;
64643;SDS011;51056;50.330;7.914;2024-01-10T17:23:37;31.75;;;19.55;;
64643;SDS011;51056;50.330;7.914;2024-01-10T17:26:45;30.08;;;18.98;;
64643;SDS011;51056;50.330;7.914;2024-01-10T17:29:48;31.90;;;20.38;;
64643;SDS011;51056;50.330;7.914;2024-01-10T17:32:53;39.15;;;20.52;;
64643;SDS011;51056;50.330;7.914;2024-01-10T17:35:58;38.17;;;21.55;;
64643;SDS011;51056;50.330;7.914;2024-01-10T17:39:01;32.60;;;19.80;;
64643;SDS011;51056;50.330;7.914;2024-01-10T17:42:05;36.63;;;21.10;;
64643;SDS011;51056;50.330;7.914;2024-01-10T17:45:13;35.28;;;20.95;;
64643;SDS011;51056;50.330;7.914;2024-01-10T17:48:21;34.97;;;21.30;;
64643;SDS011;51056;50.330;7.914;2024-01-10T17:51:24;36.38;;;22.35;;
64643;SDS011;51056;50.330;7.914;2024-01-10T17:54:34;41.85;;;23.83;;
64643;SDS011;51056;50.330;7.914;2024-01-10T17:57:40;37.75;;;22.67;;
64643;SDS011;51056;50.330;7.914;2024-01-10T18:00:48;34.78;;;20.95;;
64643;SDS011;51056;50.330;7.914;2024-01-10T18:03:53;36.58;;;22.45;;
64643;SDS011;51056;50.330;7.914;2024-01-10T18:06:57;40.00;;;22.90;;
64643;SDS011;51056;50.330;7.914;2024-01-10T18:10:02;35.80;;;20.88;;
64643;SDS011;51056;50.330;7.914;2024-01-10T18:13:07;38.55;;;22.88;;
64643;SDS011;51056;50.330;7.914;2024-01-10T18:16:11;36.05;;;21.50;;
64643;SDS011;51056;50.330;7.914;2024-01-10T18:19:15;37.33;;;21.98;;
64643;SDS011;51056;50.330;7.914;2024-01-10T18:22:19;38.42;;;23.90;;
64643;SDS011;51056;50.330;7.914;2024-01-10T18:25:22;39.03;;;24.35;;
64643;SDS011;51056;50.330;7.914;2024-01-10T18:28:26;35.90;;;22.40;;
64643;SDS011;51056;50.330;7.914;2024-01-10T18:31:29;38.35;;;23.10;;
64643;SDS011;51056;50.330;7.914;2024-01-10T18:34:33;47.92;;;25.67;;
64643;SDS011;51056;50.330;7.914;2024-01-10T18:37:37;40.50;;;23.58;;
64643;SDS011;51056;50.330;7.914;2024-01-10T18:40:43;40.70;;;22.10;;
64643;SDS011;51056;50.330;7.914;2024-01-10T18:43:49;37.70;;;22.13;;
64643;SDS011;51056;50.330;7.914;2024-01-10T18:46:53;35.88;;;21.02;;
64643;SDS011;51056;50.330;7.914;2024-01-10T18:49:56;36.28;;;21.52;;
64643;SDS011;51056;50.330;7.914;2024-01-10T18:53:00;41.38;;;24.13;;
64643;SDS011;51056;50.330;7.914;2024-01-10T18:56:06;44.30;;;24.65;;
64643;SDS011;51056;50.330;7.914;2024-01-10T18:59:09;73.90;;;35.15;;
64643;SDS011;51056;50.330;7.914;2024-01-10T19:02:12;48.58;;;27.17;;
64643;SDS011;51056;50.330;7.914;2024-01-10T19:05:17;42.30;;;23.20;;
64643;SDS011;51056;50.330;7.914;2024-01-10T19:08:20;37.65;;;22.65;;